createdAt,value
2019-03-03T00:00:14.716Z,23.40
2019-03-03T00:02:42.973Z,23.40
2019-03-03T00:05:11.237Z,23.30
2019-03-03T00:07:39.484Z,23.30
2019-03-03T00:10:09.676Z,23.20
2019-03-03T00:12:37.930Z,23.20
2019-03-03T00:15:08.832Z,23.20
2019-03-03T00:17:37.122Z,23.10
2019-03-03T00:20:13.627Z,23.10
2019-03-03T00:22:41.846Z,23.00
2019-03-03T00:25:11.637Z,23.00
2019-03-03T00:27:39.864Z,23.00
2019-03-03T00:30:11.378Z,23.00
2019-03-03T00:32:39.647Z,22.90
2019-03-03T00:35:09.005Z,22.90
2019-03-03T00:37:55.194Z,22.90
2019-03-03T00:40:28.157Z,22.80
2019-03-03T00:43:16.061Z,22.80
2019-03-03T00:45:48.630Z,22.80
2019-03-03T00:48:24.644Z,22.70
2019-03-03T00:50:54.528Z,22.70
2019-03-03T00:53:24.384Z,22.70
2019-03-03T00:55:54.300Z,22.60
2019-03-03T00:58:24.189Z,22.60
2019-03-03T01:01:06.026Z,22.50
2019-03-03T01:03:48.213Z,22.50
2019-03-03T01:06:33.386Z,22.50
2019-03-03T01:09:06.464Z,22.50
2019-03-03T01:11:42.274Z,22.40
2019-03-03T01:14:21.135Z,22.40
2019-03-03T01:17:03.253Z,22.40
2019-03-03T01:19:33.138Z,22.40
2019-03-03T01:22:03.009Z,22.30
2019-03-03T01:24:49.257Z,22.30
2019-03-03T01:27:17.516Z,22.30
2019-03-03T01:29:45.755Z,22.30
2019-03-03T01:32:14.032Z,22.20
2019-03-03T01:34:42.311Z,22.20
2019-03-03T01:37:10.553Z,22.20
2019-03-03T01:39:38.813Z,22.20
2019-03-03T01:42:07.033Z,22.20
2019-03-03T01:44:35.280Z,22.10
2019-03-03T01:47:03.543Z,22.10
2019-03-03T01:49:31.791Z,22.10
2019-03-03T01:52:00.032Z,22.10
2019-03-03T01:54:28.289Z,22.10
2019-03-03T01:56:56.518Z,22.00
2019-03-03T01:59:24.783Z,22.00
2019-03-03T02:01:53.060Z,22.00
2019-03-03T02:04:21.298Z,22.00
2019-03-03T02:10:21.421Z,22.00
2019-03-03T02:12:49.936Z,21.90
2019-03-03T02:15:18.172Z,21.90
2019-03-03T02:17:46.425Z,21.90
2019-03-03T02:20:14.671Z,21.90
2019-03-03T02:22:42.933Z,21.90
2019-03-03T02:25:12.914Z,21.80
2019-03-03T02:27:41.445Z,21.80
2019-03-03T02:30:18.090Z,21.80
2019-03-03T02:32:46.377Z,21.80
2019-03-03T02:35:14.624Z,21.80
2019-03-03T02:37:42.874Z,21.70
2019-03-03T02:40:14.170Z,21.70
2019-03-03T02:42:42.456Z,21.70
2019-03-03T02:45:13.139Z,21.70
2019-03-03T02:47:41.386Z,21.70
2019-03-03T02:50:16.220Z,21.70
2019-03-03T02:52:44.476Z,21.70
2019-03-03T02:55:17.231Z,21.70
2019-03-03T02:57:45.485Z,21.70
2019-03-03T03:00:19.879Z,21.60
2019-03-03T03:02:52.342Z,21.60
2019-03-03T03:05:29.856Z,21.60
2019-03-03T03:08:05.921Z,21.60
2019-03-03T03:10:35.854Z,21.60
2019-03-03T03:13:05.725Z,21.60
2019-03-03T03:15:35.598Z,21.60
2019-03-03T03:18:08.377Z,21.60
2019-03-03T03:20:38.296Z,21.60
2019-03-03T03:23:08.258Z,21.60
2019-03-03T03:25:38.117Z,21.50
2019-03-03T03:28:08.019Z,21.50
2019-03-03T03:30:37.887Z,21.50
2019-03-03T03:33:13.882Z,21.50
2019-03-03T03:35:43.825Z,21.50
2019-03-03T03:38:25.731Z,21.50
2019-03-03T03:41:04.282Z,21.50
2019-03-03T03:43:36.762Z,21.50
2019-03-03T03:46:12.696Z,21.40
2019-03-03T03:48:45.469Z,21.40
2019-03-03T03:51:33.646Z,21.40
2019-03-03T03:54:19.825Z,21.40
2019-03-03T03:56:49.695Z,21.40
2019-03-03T03:59:22.429Z,21.40
2019-03-03T04:01:52.381Z,21.40
2019-03-03T04:04:22.242Z,21.40
2019-03-03T04:07:01.311Z,21.30
2019-03-03T04:09:31.192Z,21.30
2019-03-03T04:12:17.475Z,21.30
2019-03-03T04:14:47.343Z,21.30
2019-03-03T04:17:26.372Z,21.30
2019-03-03T04:20:02.385Z,21.30
2019-03-03T04:22:41.335Z,21.30
2019-03-03T04:25:17.018Z,21.30
2019-03-03T04:27:52.608Z,21.30
2019-03-03T04:30:22.513Z,21.30
2019-03-03T04:33:08.554Z,21.20
2019-03-03T04:35:38.433Z,21.20
2019-03-03T04:38:24.428Z,21.20
2019-03-03T04:40:54.294Z,21.20
2019-03-03T04:43:26.859Z,21.20
2019-03-03T04:45:59.537Z,21.20
2019-03-03T04:48:44.557Z,21.20
2019-03-03T04:51:20.154Z,21.20
2019-03-03T04:54:08.241Z,21.20
2019-03-03T04:56:50.270Z,21.20
2019-03-03T04:59:22.841Z,21.20
2019-03-03T05:01:58.497Z,21.20
2019-03-03T05:04:40.597Z,21.10
2019-03-03T05:07:13.362Z,21.10
2019-03-03T05:09:52.002Z,21.10
2019-03-03T05:12:33.932Z,21.10
2019-03-03T05:15:09.677Z,21.10
2019-03-03T05:17:39.588Z,21.10
2019-03-03T05:20:12.388Z,21.10
2019-03-03T05:22:40.625Z,21.10
2019-03-03T05:25:08.884Z,21.10
2019-03-03T05:27:37.149Z,21.10
2019-03-03T05:30:10.828Z,21.10
2019-03-03T05:32:39.077Z,21.00
2019-03-03T05:35:08.372Z,21.00
2019-03-03T05:37:36.628Z,21.00
2019-03-03T05:40:06.240Z,21.00
2019-03-03T05:42:34.485Z,21.00
2019-03-03T05:45:02.977Z,21.00
2019-03-03T05:47:31.244Z,21.00
2019-03-03T05:49:59.493Z,21.00
2019-03-03T05:52:27.741Z,21.00
2019-03-03T05:54:55.999Z,21.00
2019-03-03T05:57:24.224Z,21.00
2019-03-03T05:59:52.465Z,21.00
2019-03-03T06:02:20.692Z,21.00
2019-03-03T06:04:48.952Z,20.90
2019-03-03T06:07:17.220Z,21.00
2019-03-03T06:09:45.450Z,20.90
2019-03-03T06:12:13.688Z,20.90
2019-03-03T06:14:41.938Z,20.90
2019-03-03T06:17:10.194Z,20.90
2019-03-03T06:19:38.453Z,20.90
2019-03-03T06:22:06.724Z,20.90
2019-03-03T06:24:34.948Z,20.90
2019-03-03T06:27:03.177Z,20.90
2019-03-03T06:29:31.397Z,20.90
2019-03-03T06:31:59.636Z,20.90
2019-03-03T06:34:27.892Z,20.90
2019-03-03T06:36:56.145Z,20.90
2019-03-03T06:39:24.393Z,20.90
2019-03-03T06:41:52.650Z,20.90
2019-03-03T06:44:20.890Z,20.80
2019-03-03T06:46:49.122Z,20.80
2019-03-03T06:49:17.385Z,20.80
2019-03-03T06:51:45.632Z,20.90
2019-03-03T06:54:13.852Z,20.90
2019-03-03T06:56:42.109Z,20.80
2019-03-03T06:59:10.384Z,20.80
2019-03-03T07:01:38.615Z,20.80
2019-03-03T07:04:06.883Z,20.80
2019-03-03T07:06:35.125Z,20.80
2019-03-03T07:09:04.132Z,20.80
2019-03-03T07:11:32.372Z,20.80
2019-03-03T07:14:00.633Z,20.80
2019-03-03T07:16:28.876Z,20.80
2019-03-03T07:18:57.139Z,20.80
2019-03-03T07:21:25.354Z,20.80
2019-03-03T07:23:53.625Z,20.80
2019-03-03T07:26:21.854Z,20.80
2019-03-03T07:28:50.113Z,20.80
2019-03-03T07:31:18.350Z,20.80
2019-03-03T07:33:47.281Z,20.80
2019-03-03T07:36:15.537Z,20.80
2019-03-03T07:38:43.782Z,20.80
2019-03-03T07:41:12.040Z,20.80
2019-03-03T07:43:40.280Z,20.80
2019-03-03T07:46:08.541Z,20.70
2019-03-03T07:48:36.825Z,20.80
2019-03-03T07:51:05.039Z,20.70
2019-03-03T07:53:33.291Z,20.80
2019-03-03T07:56:01.589Z,20.80
2019-03-03T07:58:29.825Z,20.80
2019-03-03T08:00:58.068Z,20.80
2019-03-03T08:03:26.319Z,20.80
2019-03-03T08:05:54.558Z,20.80
2019-03-03T08:08:22.799Z,20.80
2019-03-03T08:10:51.056Z,20.80
2019-03-03T08:13:19.321Z,20.80
2019-03-03T08:15:47.641Z,20.70
2019-03-03T08:18:15.896Z,20.30
2019-03-03T08:20:44.148Z,19.80
2019-03-03T08:23:12.373Z,19.30
2019-03-03T08:25:40.665Z,18.80
2019-03-03T08:28:08.908Z,18.30
2019-03-03T08:30:37.196Z,18.10
2019-03-03T08:33:05.421Z,17.90
2019-03-03T08:35:33.677Z,17.60
2019-03-03T08:38:01.928Z,17.50
2019-03-03T08:40:30.178Z,17.30
2019-03-03T08:43:04.219Z,17.10
2019-03-03T08:45:40.117Z,17.00
2019-03-03T08:48:15.792Z,17.10
2019-03-03T08:50:45.674Z,17.30
2019-03-03T08:53:15.585Z,17.60
2019-03-03T08:56:03.581Z,17.80
2019-03-03T08:58:33.560Z,18.10
2019-03-03T09:01:03.420Z,18.40
2019-03-03T09:03:49.657Z,18.50
2019-03-03T09:06:31.784Z,18.70
2019-03-03T09:09:01.665Z,18.90
2019-03-03T09:11:49.841Z,19.00
2019-03-03T09:14:35.083Z,19.10
2019-03-03T09:17:13.844Z,19.20
2019-03-03T09:19:46.385Z,19.30
2019-03-03T09:22:19.027Z,19.30
2019-03-03T09:25:05.023Z,19.40
2019-03-03T09:27:46.956Z,19.50
2019-03-03T09:30:16.842Z,19.50
2019-03-03T09:32:49.265Z,19.60
2019-03-03T09:35:21.649Z,19.60
2019-03-03T09:38:07.716Z,19.70
2019-03-03T09:40:43.165Z,19.70
2019-03-03T09:43:18.521Z,19.70
2019-03-03T09:46:06.676Z,19.80
2019-03-03T09:48:43.936Z,19.80
2019-03-03T09:52:08.934Z,19.80
2019-03-03T09:54:41.523Z,19.90
2019-03-03T09:57:17.186Z,19.90
2019-03-03T10:00:03.585Z,19.90
2019-03-03T10:02:36.426Z,19.90
2019-03-03T10:05:13.708Z,20.00
2019-03-03T10:07:49.313Z,20.00
2019-03-03T10:10:21.841Z,20.00
2019-03-03T10:13:10.086Z,20.00
2019-03-03T10:15:56.497Z,20.00
2019-03-03T10:18:42.630Z,20.00
2019-03-03T10:21:18.100Z,20.00
2019-03-03T10:24:02.874Z,20.00
2019-03-03T10:26:34.926Z,20.00
2019-03-03T10:29:07.230Z,20.00
2019-03-03T10:31:48.807Z,20.00
2019-03-03T10:34:18.718Z,20.00
2019-03-03T10:37:04.589Z,20.10
2019-03-03T10:39:34.489Z,20.10
2019-03-03T10:42:16.477Z,20.10
2019-03-03T10:44:46.384Z,20.10
2019-03-03T10:47:18.679Z,20.10
2019-03-03T10:50:03.609Z,20.10
2019-03-03T10:52:49.965Z,20.10
2019-03-03T10:55:32.050Z,20.10
2019-03-03T10:58:16.888Z,20.20
2019-03-03T11:00:49.451Z,20.10
2019-03-03T11:03:31.393Z,20.10
2019-03-03T11:06:01.294Z,20.10
2019-03-03T11:08:43.123Z,20.10
2019-03-03T11:11:31.127Z,20.20
2019-03-03T11:14:25.927Z,20.20
2019-03-03T11:17:04.610Z,20.20
2019-03-03T11:19:51.068Z,20.20
2019-03-03T11:22:20.935Z,20.20
2019-03-03T11:25:00.107Z,20.20
2019-03-03T11:27:46.708Z,20.20
2019-03-03T11:30:29.313Z,20.20
2019-03-03T11:33:05.131Z,20.20
2019-03-03T11:35:35.094Z,20.10
2019-03-03T11:38:14.014Z,20.10
2019-03-03T11:40:50.058Z,20.20
2019-03-03T11:43:28.909Z,20.20
2019-03-03T11:45:58.842Z,20.20
2019-03-03T11:48:37.708Z,20.20
2019-03-03T11:51:07.603Z,20.10
2019-03-03T11:53:55.546Z,20.20
2019-03-03T11:56:25.544Z,20.20
2019-03-03T11:58:55.410Z,20.20
2019-03-03T12:01:37.373Z,20.20
2019-03-03T12:04:09.958Z,20.20
2019-03-03T12:06:42.833Z,20.20
2019-03-03T12:09:28.939Z,20.20
2019-03-03T12:12:07.542Z,20.10
2019-03-03T12:14:49.468Z,20.20
2019-03-03T12:17:28.204Z,20.20
2019-03-03T12:20:01.064Z,20.20
2019-03-03T12:22:30.937Z,20.20
2019-03-03T12:25:10.045Z,20.20
2019-03-03T12:27:49.064Z,20.10
2019-03-03T12:30:21.720Z,20.10
2019-03-03T12:32:57.548Z,20.10
2019-03-03T12:35:27.435Z,20.10
2019-03-03T12:38:00.079Z,20.20
2019-03-03T12:40:29.973Z,20.20
2019-03-03T12:42:59.844Z,20.20
2019-03-03T12:45:45.989Z,20.20
2019-03-03T12:48:15.868Z,20.20
2019-03-03T12:50:57.172Z,20.20
2019-03-03T12:53:27.060Z,20.20
2019-03-03T12:55:59.632Z,20.20
2019-03-03T12:58:29.511Z,20.20
2019-03-03T13:01:05.362Z,20.30
2019-03-03T13:03:50.330Z,20.30
2019-03-03T13:06:24.223Z,20.30
2019-03-03T13:08:59.851Z,20.40
2019-03-03T13:11:29.478Z,20.50
2019-03-03T13:14:14.677Z,20.60
2019-03-03T13:16:56.660Z,20.70
2019-03-03T13:19:29.498Z,20.90
2019-03-03T13:22:05.147Z,21.00
2019-03-03T13:24:37.749Z,21.10
2019-03-03T13:27:13.634Z,21.20
2019-03-03T13:29:52.205Z,21.40
2019-03-03T13:32:37.482Z,21.70
2019-03-03T13:35:24.461Z,22.20
2019-03-03T13:37:57.293Z,22.80
2019-03-03T13:40:30.146Z,23.50
2019-03-03T13:42:58.397Z,24.10
2019-03-03T13:45:28.056Z,24.60
2019-03-03T13:47:56.290Z,25.00
2019-03-03T13:50:24.553Z,25.30
2019-03-03T13:52:52.789Z,25.60
2019-03-03T13:55:21.017Z,25.70
2019-03-03T13:57:49.258Z,25.70
2019-03-03T14:00:20.639Z,25.80
2019-03-03T14:02:49.041Z,25.70
2019-03-03T14:05:19.010Z,25.70
2019-03-03T14:07:47.265Z,25.70
2019-03-03T14:10:15.601Z,25.60
2019-03-03T14:12:43.885Z,25.60
2019-03-03T14:15:14.594Z,25.40
2019-03-03T14:17:42.854Z,25.40
2019-03-03T14:20:13.342Z,25.20
2019-03-03T14:22:41.562Z,25.20
2019-03-03T14:25:10.161Z,25.10
2019-03-03T14:27:38.415Z,24.90
2019-03-03T14:30:10.198Z,24.80
2019-03-03T14:32:38.444Z,24.60
2019-03-03T14:35:08.547Z,24.50
2019-03-03T14:37:36.784Z,24.50
2019-03-03T14:40:08.302Z,24.80
2019-03-03T14:42:36.521Z,25.20
2019-03-03T14:45:07.861Z,25.50
2019-03-03T14:47:36.120Z,25.90
2019-03-03T14:50:07.116Z,26.20
2019-03-03T14:52:35.364Z,26.50
2019-03-03T14:55:05.029Z,26.60
2019-03-03T14:57:33.277Z,26.70
2019-03-03T15:00:01.527Z,26.80
2019-03-03T15:02:29.770Z,26.80
2019-03-03T15:04:58.054Z,26.70
2019-03-03T15:07:26.353Z,26.60
2019-03-03T15:09:54.584Z,26.40
2019-03-03T15:12:22.848Z,26.40
2019-03-03T15:14:51.108Z,26.20
2019-03-03T15:17:19.317Z,26.10
2019-03-03T15:19:47.566Z,26.00
2019-03-03T15:22:15.808Z,25.80
2019-03-03T15:24:44.072Z,25.70
2019-03-03T15:27:12.697Z,25.60
2019-03-03T15:29:40.913Z,25.50
2019-03-03T15:32:09.178Z,25.40
2019-03-03T15:34:37.436Z,25.30
2019-03-03T15:37:07.318Z,25.20
2019-03-03T15:39:35.613Z,25.00
2019-03-03T15:42:03.836Z,24.90
2019-03-03T15:44:32.071Z,24.80
2019-03-03T15:47:00.322Z,24.70
2019-03-03T15:49:28.587Z,24.50
2019-03-03T15:51:56.949Z,24.30
2019-03-03T15:54:25.196Z,24.20
2019-03-03T16:00:14.130Z,24.90
2019-03-03T16:02:42.429Z,25.60
2019-03-03T16:05:11.415Z,26.10
2019-03-03T16:07:40.445Z,26.30
2019-03-03T16:10:11.673Z,26.50
2019-03-03T16:12:39.880Z,26.70
2019-03-03T16:15:12.768Z,26.80
2019-03-03T16:17:41.025Z,26.80
2019-03-03T16:20:12.265Z,26.70
2019-03-03T16:22:40.487Z,26.60
2019-03-03T16:25:11.285Z,26.50
2019-03-03T16:27:39.674Z,26.40
2019-03-03T16:30:17.868Z,26.20
2019-03-03T16:32:45.877Z,26.10
2019-03-03T16:35:14.770Z,26.00
2019-03-03T16:37:43.112Z,25.80
2019-03-03T16:40:14.613Z,25.70
2019-03-03T16:42:42.842Z,25.60
2019-03-03T16:45:13.066Z,25.40
2019-03-03T16:47:41.321Z,25.20
2019-03-03T16:50:11.916Z,25.10
2019-03-03T16:52:40.291Z,25.00
2019-03-03T16:55:11.097Z,24.80
2019-03-03T16:57:39.385Z,24.70
2019-03-03T17:00:11.165Z,24.50
2019-03-03T17:02:39.464Z,24.40
2019-03-03T17:05:13.529Z,24.30
2019-03-03T17:07:41.968Z,24.40
2019-03-03T17:10:10.825Z,24.70
2019-03-03T17:12:39.402Z,25.00
2019-03-03T17:15:11.155Z,25.30
2019-03-03T17:17:39.431Z,25.70
2019-03-03T17:20:09.444Z,26.00
2019-03-03T17:22:37.704Z,26.20
2019-03-03T17:25:25.364Z,26.30
2019-03-03T17:27:53.626Z,26.40
2019-03-03T17:30:23.313Z,26.40
2019-03-03T17:32:51.553Z,26.30
2019-03-03T17:35:19.819Z,26.30
2019-03-03T17:37:48.214Z,26.10
2019-03-03T17:40:21.837Z,26.00
2019-03-03T17:42:50.090Z,25.90
2019-03-03T17:45:20.765Z,25.70
2019-03-03T17:47:49.232Z,25.60
2019-03-03T17:50:22.883Z,25.40
2019-03-03T17:52:51.118Z,25.20
2019-03-03T17:55:19.396Z,24.90
2019-03-03T17:57:47.647Z,24.80
2019-03-03T18:00:21.957Z,24.80
2019-03-03T18:02:50.223Z,25.00
2019-03-03T18:05:19.286Z,25.20
2019-03-03T18:07:47.621Z,25.40
2019-03-03T18:10:16.130Z,25.60
2019-03-03T18:12:44.429Z,25.70
2019-03-03T18:15:14.232Z,25.80
2019-03-03T18:17:42.462Z,25.90
2019-03-03T18:20:15.331Z,26.00
2019-03-03T18:22:43.637Z,26.00
2019-03-03T18:32:09.711Z,26.10
2019-03-03T18:34:37.953Z,26.10
2019-03-03T18:37:06.201Z,26.00
2019-03-03T18:39:34.491Z,25.90
2019-03-03T18:42:02.733Z,25.90
2019-03-03T18:44:31.009Z,25.80
2019-03-03T18:46:59.283Z,25.50
2019-03-03T18:49:27.595Z,25.30
2019-03-03T18:51:55.826Z,25.30
2019-03-03T18:54:24.188Z,25.40
2019-03-03T18:56:52.441Z,25.60
2019-03-03T18:59:20.671Z,25.90
2019-03-03T19:01:49.020Z,26.10
2019-03-03T19:04:17.237Z,26.30
2019-03-03T19:06:45.530Z,26.50
2019-03-03T19:09:16.281Z,26.70
2019-03-03T19:11:44.678Z,26.80
2019-03-03T19:14:12.961Z,26.90
2019-03-03T19:16:41.212Z,26.90
2019-03-03T19:19:09.524Z,26.80
2019-03-03T19:21:37.782Z,26.80
2019-03-03T19:24:06.115Z,26.80
2019-03-03T19:26:34.361Z,26.70
2019-03-03T19:29:02.591Z,26.60
2019-03-03T19:31:30.838Z,26.40
2019-03-03T19:33:59.075Z,26.30
2019-03-03T19:36:27.331Z,26.20
2019-03-03T19:38:55.627Z,26.20
2019-03-03T19:41:23.895Z,26.00
2019-03-03T19:43:52.150Z,25.90
2019-03-03T19:46:20.415Z,25.80
2019-03-03T19:48:48.758Z,25.70
2019-03-03T19:51:17.017Z,25.60
2019-03-03T19:53:45.281Z,25.50
2019-03-03T19:56:13.532Z,25.40
2019-03-03T19:58:41.779Z,25.20
2019-03-03T20:01:10.052Z,25.30
2019-03-03T20:03:38.284Z,25.60
2019-03-03T20:06:06.536Z,25.90
2019-03-03T20:08:36.465Z,26.40
2019-03-03T20:11:04.824Z,26.70
2019-03-03T20:13:33.068Z,27.00
2019-03-03T20:16:01.383Z,27.10
2019-03-03T20:18:29.647Z,27.10
2019-03-03T20:20:57.927Z,27.10
2019-03-03T20:23:26.160Z,27.00
2019-03-03T20:25:54.406Z,26.90
2019-03-03T20:28:22.681Z,26.80
2019-03-03T20:30:51.202Z,26.60
2019-03-03T20:33:19.446Z,26.40
2019-03-03T20:35:47.697Z,26.20
2019-03-03T20:38:15.959Z,26.00
2019-03-03T20:40:44.227Z,26.00
2019-03-03T20:43:12.495Z,26.10
2019-03-03T20:45:42.373Z,26.30
2019-03-03T20:48:10.632Z,26.40
2019-03-03T20:50:39.033Z,26.50
2019-03-03T20:53:07.343Z,26.50
2019-03-03T20:55:35.643Z,26.50
2019-03-03T20:58:23.336Z,26.50
2019-03-03T21:00:51.594Z,26.50
2019-03-03T21:03:21.687Z,26.50
2019-03-03T21:10:09.958Z,26.30
2019-03-03T21:12:38.356Z,26.10
2019-03-03T21:15:09.227Z,25.90
2019-03-03T21:17:37.579Z,25.80
2019-03-03T21:20:09.047Z,25.70
2019-03-03T21:22:38.330Z,25.60
2019-03-03T21:25:09.330Z,25.50
2019-03-03T21:27:37.587Z,25.30
2019-03-03T21:30:09.182Z,25.30
2019-03-03T21:32:37.567Z,25.10
2019-03-03T21:35:08.623Z,25.10
2019-03-03T21:37:36.879Z,25.00
2019-03-03T21:40:08.609Z,25.00
2019-03-03T21:42:36.865Z,24.90
2019-03-03T21:45:08.465Z,24.80
2019-03-03T21:47:36.701Z,24.80
2019-03-03T21:50:08.192Z,24.70
2019-03-03T21:52:36.469Z,24.60
2019-03-03T21:55:06.069Z,24.60
2019-03-03T21:57:34.337Z,24.50
2019-03-03T22:00:02.565Z,24.40
2019-03-03T22:02:30.853Z,24.40
2019-03-03T22:04:59.102Z,24.30
2019-03-03T22:07:27.363Z,24.20
2019-03-03T22:09:55.650Z,24.10
2019-03-03T22:12:23.928Z,24.10
2019-03-03T22:14:52.169Z,24.00
2019-03-03T22:17:20.484Z,24.00
2019-03-03T22:19:48.714Z,23.90
2019-03-03T22:22:16.970Z,23.80
2019-03-03T22:24:45.218Z,23.80
2019-03-03T22:27:13.492Z,23.80
2019-03-03T22:29:41.709Z,23.70
2019-03-03T22:32:09.990Z,23.70
2019-03-03T22:34:38.284Z,23.70
2019-03-03T22:37:06.573Z,23.70
2019-03-03T22:39:34.840Z,23.60
2019-03-03T22:42:03.093Z,23.60
2019-03-03T22:44:31.373Z,23.60
2019-03-03T22:46:59.609Z,23.50
2019-03-03T22:49:27.926Z,23.50
2019-03-03T22:51:56.188Z,23.50
2019-03-03T22:54:24.468Z,23.40
2019-03-03T22:56:52.694Z,23.40
2019-03-03T22:59:20.937Z,23.30
2019-03-03T23:01:49.170Z,23.30
2019-03-03T23:04:41.740Z,23.20
2019-03-03T23:07:30.924Z,23.20
2019-03-03T23:10:26.766Z,23.20
2019-03-03T23:13:21.033Z,23.10
2019-03-03T23:16:18.077Z,23.10
2019-03-03T23:19:13.899Z,23.00
2019-03-03T23:21:59.970Z,23.00
2019-03-03T23:24:42.984Z,23.00
2019-03-03T23:27:11.245Z,23.00
2019-03-03T23:29:39.470Z,22.90
2019-03-03T23:32:07.695Z,22.90
2019-03-03T23:34:35.964Z,22.90
2019-03-03T23:37:04.188Z,22.90
2019-03-03T23:39:32.448Z,22.80
2019-03-03T23:42:00.705Z,22.80
2019-03-03T23:44:28.942Z,22.80
2019-03-03T23:46:57.177Z,22.80
2019-03-03T23:49:25.442Z,22.70
2019-03-03T23:51:53.701Z,22.70
2019-03-03T23:54:21.920Z,22.70
2019-03-03T23:56:50.203Z,22.70
2019-03-03T23:59:18.453Z,22.70
